createdAt,value
2023-03-26T00:00:27.382Z,98230.38
2023-03-26T00:06:16.238Z,98240.04
2023-03-26T00:11:40.093Z,98239.95
2023-03-26T00:17:04.630Z,98238.32
2023-03-26T00:22:29.868Z,98233.79
2023-03-26T00:27:55.040Z,98228.95
2023-03-26T00:33:19.882Z,98233.47
2023-03-26T00:38:45.188Z,98223.80
2023-03-26T00:44:10.269Z,98215.58
2023-03-26T00:49:34.969Z,98198.20
2023-03-26T00:55:00.495Z,98219.14
2023-03-26T01:00:35.183Z,98222.70
2023-03-26T01:06:14.327Z,98220.60
2023-03-26T01:11:38.444Z,98218.20
2023-03-26T01:17:04.844Z,98209.56
2023-03-26T01:22:29.176Z,98218.85
2023-03-26T01:27:57.213Z,98224.05
2023-03-26T01:33:47.249Z,98223.33
2023-03-26T01:39:20.640Z,98224.86
2023-03-26T01:45:09.473Z,98232.43
2023-03-26T01:50:33.614Z,98239.77
2023-03-26T01:56:12.996Z,98246.18
2023-03-26T02:01:45.379Z,98239.52
2023-03-26T02:07:21.181Z,98224.55
2023-03-26T02:12:45.594Z,98223.08
2023-03-26T02:18:13.674Z,98215.50
2023-03-26T02:23:38.788Z,98214.92
2023-03-26T02:29:03.184Z,98220.17
2023-03-26T02:34:28.618Z,98210.56
2023-03-26T02:39:53.492Z,98215.83
2023-03-26T02:45:23.874Z,98213.72
2023-03-26T02:51:10.825Z,98214.85
2023-03-26T02:56:40.688Z,98215.63
2023-03-26T03:02:24.811Z,98215.90
2023-03-26T03:07:50.384Z,98217.13
2023-03-26T03:13:15.676Z,98223.58
2023-03-26T03:18:40.478Z,98231.63
2023-03-26T03:24:05.620Z,98232.59
2023-03-26T03:29:36.562Z,98238.02
2023-03-26T03:35:20.886Z,98246.11
2023-03-26T03:40:48.604Z,98247.97
2023-03-26T03:46:14.172Z,98248.34
2023-03-26T03:51:44.229Z,98250.08
2023-03-26T03:57:19.178Z,98253.84
2023-03-26T04:02:59.104Z,98255.66
2023-03-26T04:08:24.995Z,98252.45
2023-03-26T04:13:52.759Z,98252.80
2023-03-26T04:19:33.139Z,98256.62
2023-03-26T04:24:57.684Z,98252.73
2023-03-26T04:30:28.369Z,98249.34
2023-03-26T04:36:03.372Z,98248.48
2023-03-26T04:41:30.594Z,98242.02
2023-03-26T04:47:01.384Z,98246.15
2023-03-26T04:52:39.744Z,98244.65
2023-03-26T05:03:23.588Z,98247.38
2023-03-26T05:08:47.608Z,98245.86
2023-03-26T05:14:25.081Z,98241.57
2023-03-26T05:19:52.626Z,98236.09
2023-03-26T05:25:17.957Z,98243.87
2023-03-26T05:30:43.926Z,98256.91
2023-03-26T05:36:13.541Z,98253.16
2023-03-26T05:41:39.704Z,98259.11
2023-03-26T05:47:04.181Z,98247.61
2023-03-26T05:52:29.929Z,98247.80
2023-03-26T05:58:15.825Z,98252.11
2023-03-26T06:03:49.180Z,98252.20
2023-03-26T06:09:17.313Z,98254.16
2023-03-26T06:14:46.130Z,98260.27
2023-03-26T06:20:16.157Z,98264.09
2023-03-26T06:25:46.157Z,98260.67
2023-03-26T06:31:22.447Z,98261.23
2023-03-26T06:37:09.443Z,98258.09
2023-03-26T06:43:07.500Z,98257.70
2023-03-26T06:54:25.584Z,98266.27
2023-03-26T06:59:53.375Z,98262.52
2023-03-26T07:05:36.305Z,98265.27
2023-03-26T07:11:21.075Z,98255.39
2023-03-26T07:17:03.708Z,98253.17
2023-03-26T07:22:52.349Z,98246.16
2023-03-26T07:28:42.442Z,98246.91
2023-03-26T07:35:08.831Z,98251.58
2023-03-26T07:41:23.809Z,98246.73
2023-03-26T07:47:27.196Z,98238.59
2023-03-26T07:53:11.001Z,98239.62
2023-03-26T07:59:10.960Z,98239.75
2023-03-26T08:05:00.733Z,98242.30
2023-03-26T08:11:08.414Z,98238.41
2023-03-26T08:16:51.695Z,98233.16
2023-03-26T08:22:26.557Z,98224.45
2023-03-26T08:28:35.382Z,98234.89
2023-03-26T08:34:00.834Z,98233.54
2023-03-26T08:39:25.786Z,98239.23
2023-03-26T08:45:03.122Z,98235.48
2023-03-26T08:50:39.423Z,98233.05
2023-03-26T08:56:37.721Z,98227.25
2023-03-26T09:02:21.837Z,98223.39
2023-03-26T09:07:51.895Z,98223.40
2023-03-26T09:13:57.532Z,98226.13
2023-03-26T09:19:34.393Z,98225.90
2023-03-26T09:25:09.165Z,98232.29
2023-03-26T09:31:02.548Z,98227.17
2023-03-26T09:36:34.295Z,98219.86
2023-03-26T09:42:18.349Z,98223.20
2023-03-26T09:47:54.768Z,98226.71
2023-03-26T09:53:25.224Z,98228.74
2023-03-26T09:59:33.675Z,98243.83
2023-03-26T10:05:05.371Z,98227.88
2023-03-26T10:10:38.258Z,98222.95
2023-03-26T10:16:44.970Z,98214.05
2023-03-26T10:22:16.638Z,98210.09
2023-03-26T10:28:11.272Z,98199.88
2023-03-26T10:33:52.769Z,98187.44
2023-03-26T10:39:37.580Z,98178.41
2023-03-26T10:45:25.383Z,98171.98
2023-03-26T10:51:17.198Z,98166.80
2023-03-26T10:56:51.058Z,98169.13
2023-03-26T11:02:30.804Z,98164.61
2023-03-26T11:08:15.721Z,98160.59
2023-03-26T11:13:53.967Z,98148.61
2023-03-26T11:19:42.813Z,98138.84
2023-03-26T11:25:28.142Z,98138.04
2023-03-26T11:31:02.496Z,98145.91
2023-03-26T11:36:38.330Z,98129.14
2023-03-26T11:42:14.711Z,98127.34
2023-03-26T11:47:55.680Z,98126.39
2023-03-26T11:53:22.746Z,98125.51
2023-03-26T11:59:02.963Z,98115.31
2023-03-26T12:04:40.859Z,98099.06
2023-03-26T12:10:20.942Z,98094.88
2023-03-26T12:15:45.215Z,98087.98
2023-03-26T12:21:20.031Z,98080.45
2023-03-26T12:26:49.325Z,98076.05
2023-03-26T12:32:15.326Z,98065.01
2023-03-26T12:37:43.728Z,98062.29
2023-03-26T12:44:46.872Z,98062.00
2023-03-26T12:49:24.039Z,98071.22
2023-03-26T12:55:16.247Z,98081.39
2023-03-26T13:00:57.888Z,98083.23
2023-03-26T13:07:00.419Z,98078.10
2023-03-26T13:12:53.655Z,98085.08
2023-03-26T13:18:30.216Z,98084.84
2023-03-26T13:24:18.833Z,98077.24
2023-03-26T13:30:02.226Z,98075.45
2023-03-26T13:35:37.022Z,98067.42
2023-03-26T13:41:06.958Z,98054.83
2023-03-26T13:46:43.695Z,98067.08
2023-03-26T13:52:15.916Z,98062.92
2023-03-26T13:57:46.316Z,98064.67
2023-03-26T14:03:21.092Z,98060.27
2023-03-26T14:08:55.185Z,98053.33
2023-03-26T14:14:44.565Z,98051.61
2023-03-26T14:20:32.918Z,98045.62
2023-03-26T14:26:27.163Z,98046.25
2023-03-26T14:32:04.732Z,98040.32
2023-03-26T14:37:29.050Z,98032.08
2023-03-26T14:43:38.812Z,98029.67
2023-03-26T14:49:24.360Z,98032.89
2023-03-26T14:54:52.341Z,98031.05
2023-03-26T15:00:45.289Z,98024.77
2023-03-26T15:06:47.469Z,98024.89
2023-03-26T15:12:24.919Z,98018.13
2023-03-26T15:17:57.592Z,98011.23
2023-03-26T15:23:30.997Z,98007.06
2023-03-26T15:28:59.537Z,98005.69
2023-03-26T15:35:03.047Z,98002.44
2023-03-26T15:40:43.485Z,98004.83
2023-03-26T15:46:10.602Z,98002.59
2023-03-26T15:51:59.123Z,97999.67
2023-03-26T15:57:41.268Z,97994.64
2023-03-26T16:03:11.265Z,97993.63
2023-03-26T16:09:08.471Z,97994.66
2023-03-26T16:14:35.824Z,97990.30
2023-03-26T16:20:21.092Z,97988.95
2023-03-26T16:26:19.974Z,97989.24
2023-03-26T16:32:06.057Z,97990.62
2023-03-26T16:37:36.700Z,97992.30
2023-03-26T16:43:24.848Z,97988.23
2023-03-26T16:48:58.335Z,97987.58
2023-03-26T16:54:36.748Z,97989.27
2023-03-26T17:00:29.527Z,97980.58
2023-03-26T17:06:02.518Z,97984.86
2023-03-26T17:11:47.694Z,98002.52
2023-03-26T17:17:41.290Z,98001.01
2023-03-26T17:23:09.781Z,98009.67
2023-03-26T17:29:08.315Z,98016.89
2023-03-26T17:34:38.820Z,98016.09
2023-03-26T17:40:06.662Z,98021.86
2023-03-26T17:45:35.589Z,98023.59
2023-03-26T17:51:34.493Z,98027.39
2023-03-26T17:57:05.556Z,98028.52
2023-03-26T18:02:39.706Z,98034.17
2023-03-26T18:08:25.261Z,98029.41
2023-03-26T18:14:24.602Z,98030.34
2023-03-26T18:20:02.860Z,98033.35
2023-03-26T18:25:32.704Z,98035.84
2023-03-26T18:31:09.142Z,98037.96
2023-03-26T18:36:33.526Z,98032.35
2023-03-26T18:41:58.798Z,98030.53
2023-03-26T18:47:23.366Z,98028.70
2023-03-26T18:52:52.874Z,98026.09
2023-03-26T18:58:28.293Z,98025.66
2023-03-26T19:03:54.656Z,98024.39
2023-03-26T19:09:31.135Z,98020.70
2023-03-26T19:15:13.804Z,98020.16
2023-03-26T19:20:45.711Z,98022.19
2023-03-26T19:26:11.865Z,98016.20
2023-03-26T19:31:40.636Z,98013.95
2023-03-26T19:37:30.126Z,98010.44
2023-03-26T19:42:54.556Z,98013.09
2023-03-26T19:48:45.929Z,98013.29
2023-03-26T19:54:16.817Z,98004.42
2023-03-26T19:59:41.352Z,98001.31
2023-03-26T20:05:10.659Z,98003.39
2023-03-26T20:10:35.360Z,97996.70
2023-03-26T20:16:13.566Z,97990.90
2023-03-26T20:21:38.527Z,97979.75
2023-03-26T20:27:02.717Z,97983.58
2023-03-26T20:32:27.625Z,97980.54
2023-03-26T20:37:53.649Z,97980.66
2023-03-26T20:43:18.832Z,97975.23
2023-03-26T20:48:43.359Z,97966.94
2023-03-26T20:54:08.380Z,97963.03
2023-03-26T20:59:32.798Z,97959.73
2023-03-26T21:04:57.639Z,97954.34
2023-03-26T21:10:23.200Z,97947.73
2023-03-26T21:15:47.877Z,97943.79
2023-03-26T21:21:56.477Z,97938.02
2023-03-26T21:27:20.370Z,97945.10
2023-03-26T21:32:45.733Z,97948.30
2023-03-26T21:38:10.301Z,97948.77
2023-03-26T21:43:34.854Z,97946.27
2023-03-26T21:48:59.780Z,97946.88
2023-03-26T21:54:29.087Z,97950.67
2023-03-26T22:00:07.825Z,97953.82
2023-03-26T22:05:38.576Z,97943.89
2023-03-26T22:11:02.554Z,97949.43
2023-03-26T22:16:26.997Z,97941.57
2023-03-26T22:21:56.358Z,97930.04
2023-03-26T22:27:24.932Z,97933.96
2023-03-26T22:32:53.787Z,97950.38
2023-03-26T22:38:18.272Z,97965.06
2023-03-26T22:43:42.873Z,97983.19
2023-03-26T22:49:08.128Z,97978.89
2023-03-26T22:54:33.591Z,97976.67
2023-03-26T23:00:12.913Z,97975.05
2023-03-26T23:05:36.938Z,97979.05
2023-03-26T23:11:02.293Z,97983.10
2023-03-26T23:16:26.882Z,97981.45
2023-03-26T23:21:51.295Z,97982.39
2023-03-26T23:27:15.744Z,97983.17
2023-03-26T23:32:47.494Z,97988.02
2023-03-26T23:38:13.425Z,97982.91
2023-03-26T23:43:39.950Z,97986.02
2023-03-26T23:49:18.402Z,97980.23
2023-03-26T23:54:43.464Z,97992.61
